sensor_id;sensor_type;location;lat;lon;timestamp;pressure;altitude;pressure_sealevel;temperature;humidity
550;BME280;20066;48.764;9.176;2023-02-11T00:01:39;100221.53;;;2.62;57.86
550;BME280;20066;48.764;9.176;2023-02-11T00:04:07;100218.09;;;2.91;55.57
550;BME280;20066;48.764;9.176;2023-02-11T00:06:36;100229.03;;;3.08;55.76
550;BME280;20066;48.764;9.176;2023-02-11T00:09:04;100224.22;;;3.34;54.43
550;BME280;20066;48.764;9.176;2023-02-11T00:11:33;100229.50;;;2.33;57.09
550;BME280;20066;48.764;9.176;2023-02-11T00:14:02;100221.81;;;2.32;58.04
550;BME280;20066;48.764;9.176;2023-02-11T00:16:31;100221.56;;;2.86;57.03
550;BME280;20066;48.764;9.176;2023-02-11T00:18:59;100218.91;;;2.86;56.39
550;BME280;20066;48.764;9.176;2023-02-11T00:21:27;100217.84;;;2.87;55.58
550;BME280;20066;48.764;9.176;2023-02-11T00:23:57;100219.66;;;3.15;55.14
550;BME280;20066;48.764;9.176;2023-02-11T00:26:29;100223.88;;;2.93;55.28
550;BME280;20066;48.764;9.176;2023-02-11T00:28:59;100221.94;;;3.27;54.61
550;BME280;20066;48.764;9.176;2023-02-11T00:31:27;100215.44;;;3.14;55.80
550;BME280;20066;48.764;9.176;2023-02-11T00:33:55;100210.06;;;3.38;53.88
550;BME280;20066;48.764;9.176;2023-02-11T00:36:25;100218.97;;;3.52;53.94
550;BME280;20066;48.764;9.176;2023-02-11T00:38:55;100206.66;;;3.57;54.00
550;BME280;20066;48.764;9.176;2023-02-11T00:41:24;100205.34;;;3.54;53.04
550;BME280;20066;48.764;9.176;2023-02-11T00:43:52;100193.91;;;3.35;54.12
550;BME280;20066;48.764;9.176;2023-02-11T00:46:21;100192.84;;;3.54;54.12
550;BME280;20066;48.764;9.176;2023-02-11T00:48:49;100192.72;;;3.65;53.19
550;BME280;20066;48.764;9.176;2023-02-11T00:51:20;100194.97;;;3.34;54.36
550;BME280;20066;48.764;9.176;2023-02-11T00:53:48;100199.31;;;2.53;55.67
550;BME280;20066;48.764;9.176;2023-02-11T00:56:16;100204.25;;;2.36;57.17
550;BME280;20066;48.764;9.176;2023-02-11T00:58:45;100203.22;;;2.90;55.40
550;BME280;20066;48.764;9.176;2023-02-11T01:01:13;100205.28;;;2.69;56.48
550;BME280;20066;48.764;9.176;2023-02-11T01:03:41;100205.28;;;3.17;55.63
550;BME280;20066;48.764;9.176;2023-02-11T01:06:09;100197.66;;;3.10;55.21
550;BME280;20066;48.764;9.176;2023-02-11T01:08:37;100193.31;;;2.95;55.48
550;BME280;20066;48.764;9.176;2023-02-11T01:11:07;100189.34;;;2.93;55.92
550;BME280;20066;48.764;9.176;2023-02-11T01:13:37;100194.72;;;2.88;55.36
550;BME280;20066;48.764;9.176;2023-02-11T01:16:08;100186.78;;;3.30;54.03
550;BME280;20066;48.764;9.176;2023-02-11T01:18:36;100188.47;;;3.45;53.74
550;BME280;20066;48.764;9.176;2023-02-11T01:21:04;100171.28;;;3.56;53.37
550;BME280;20066;48.764;9.176;2023-02-11T01:23:33;100174.34;;;3.26;54.41
550;BME280;20066;48.764;9.176;2023-02-11T01:26:01;100166.44;;;3.39;54.18
550;BME280;20066;48.764;9.176;2023-02-11T01:28:29;100157.28;;;3.50;54.85
550;BME280;20066;48.764;9.176;2023-02-11T01:30:58;100156.81;;;3.62;53.53
550;BME280;20066;48.764;9.176;2023-02-11T01:33:28;100159.69;;;3.47;54.70
550;BME280;20066;48.764;9.176;2023-02-11T01:35:59;100153.81;;;3.50;53.92
550;BME280;20066;48.764;9.176;2023-02-11T01:38:27;100147.69;;;3.31;54.09
550;BME280;20066;48.764;9.176;2023-02-11T01:40:56;100151.88;;;2.94;56.32
550;BME280;20066;48.764;9.176;2023-02-11T01:43:27;100152.44;;;2.67;57.20
550;BME280;20066;48.764;9.176;2023-02-11T01:46:00;100153.00;;;2.64;56.19
550;BME280;20066;48.764;9.176;2023-02-11T01:48:36;100146.66;;;2.84;55.89
550;BME280;20066;48.764;9.176;2023-02-11T01:51:07;100155.66;;;2.88;55.80
550;BME280;20066;48.764;9.176;2023-02-11T01:53:37;100142.03;;;2.95;55.57
550;BME280;20066;48.764;9.176;2023-02-11T01:56:24;100145.06;;;3.07;54.90
550;BME280;20066;48.764;9.176;2023-02-11T01:59:14;100149.19;;;3.18;54.40
550;BME280;20066;48.764;9.176;2023-02-11T02:01:45;100152.41;;;3.15;54.42
550;BME280;20066;48.764;9.176;2023-02-11T02:04:17;100150.69;;;3.05;54.61
550;BME280;20066;48.764;9.176;2023-02-11T02:06:50;100151.75;;;2.81;55.67
550;BME280;20066;48.764;9.176;2023-02-11T02:09:22;100150.53;;;3.15;54.53
550;BME280;20066;48.764;9.176;2023-02-11T02:11:52;100141.91;;;3.05;54.04
550;BME280;20066;48.764;9.176;2023-02-11T02:14:20;100142.47;;;3.44;53.73
550;BME280;20066;48.764;9.176;2023-02-11T02:16:48;100129.59;;;3.33;53.37
550;BME280;20066;48.764;9.176;2023-02-11T02:19:53;100140.88;;;3.62;52.93
550;BME280;20066;48.764;9.176;2023-02-11T02:23:02;100142.38;;;3.49;53.50
550;BME280;20066;48.764;9.176;2023-02-11T02:25:53;100139.78;;;3.63;53.31
550;BME280;20066;48.764;9.176;2023-02-11T02:28:44;100132.63;;;3.02;55.46
550;BME280;20066;48.764;9.176;2023-02-11T02:31:28;100127.44;;;3.35;54.30
550;BME280;20066;48.764;9.176;2023-02-11T02:34:05;100118.03;;;3.00;55.54
550;BME280;20066;48.764;9.176;2023-02-11T02:36:38;100120.03;;;3.32;53.77
550;BME280;20066;48.764;9.176;2023-02-11T02:39:13;100120.38;;;3.63;53.93
550;BME280;20066;48.764;9.176;2023-02-11T02:41:42;100124.47;;;3.55;53.33
550;BME280;20066;48.764;9.176;2023-02-11T02:44:11;100125.63;;;3.30;54.04
550;BME280;20066;48.764;9.176;2023-02-11T02:46:39;100120.16;;;3.03;54.08
550;BME280;20066;48.764;9.176;2023-02-11T02:49:11;100121.63;;;2.90;54.67
550;BME280;20066;48.764;9.176;2023-02-11T02:52:05;100116.94;;;3.25;54.60
550;BME280;20066;48.764;9.176;2023-02-11T02:55:00;100109.03;;;3.38;53.46
550;BME280;20066;48.764;9.176;2023-02-11T02:57:38;100101.38;;;2.75;55.11
550;BME280;20066;48.764;9.176;2023-02-11T03:00:16;100101.22;;;2.86;56.26
550;BME280;20066;48.764;9.176;2023-02-11T03:02:58;100089.41;;;3.15;54.79
550;BME280;20066;48.764;9.176;2023-02-11T03:05:39;100090.28;;;3.30;55.54
550;BME280;20066;48.764;9.176;2023-02-11T03:08:15;100088.59;;;2.96;55.56
550;BME280;20066;48.764;9.176;2023-02-11T03:10:46;100097.94;;;2.94;56.49
550;BME280;20066;48.764;9.176;2023-02-11T03:13:19;100090.66;;;2.81;55.37
550;BME280;20066;48.764;9.176;2023-02-11T03:15:50;100086.59;;;2.64;56.52
550;BME280;20066;48.764;9.176;2023-02-11T03:18:22;100087.19;;;3.04;54.71
550;BME280;20066;48.764;9.176;2023-02-11T03:20:52;100082.25;;;2.73;56.07
550;BME280;20066;48.764;9.176;2023-02-11T03:23:25;100079.00;;;3.19;54.78
550;BME280;20066;48.764;9.176;2023-02-11T03:25:57;100078.88;;;3.29;54.11
550;BME280;20066;48.764;9.176;2023-02-11T03:28:30;100084.53;;;3.60;53.75
550;BME280;20066;48.764;9.176;2023-02-11T03:31:08;100082.28;;;2.92;55.25
550;BME280;20066;48.764;9.176;2023-02-11T03:33:40;100077.41;;;2.99;55.44
550;BME280;20066;48.764;9.176;2023-02-11T03:36:19;100070.66;;;2.64;56.15
550;BME280;20066;48.764;9.176;2023-02-11T03:38:52;100073.97;;;3.18;55.09
550;BME280;20066;48.764;9.176;2023-02-11T03:41:23;100069.41;;;2.81;55.39
550;BME280;20066;48.764;9.176;2023-02-11T03:43:53;100076.84;;;2.60;55.46
550;BME280;20066;48.764;9.176;2023-02-11T03:46:27;100076.84;;;1.78;58.02
550;BME280;20066;48.764;9.176;2023-02-11T03:49:00;100083.06;;;1.97;58.15
550;BME280;20066;48.764;9.176;2023-02-11T03:51:31;100085.84;;;1.82;58.51
550;BME280;20066;48.764;9.176;2023-02-11T03:54:02;100084.13;;;1.96;58.06
550;BME280;20066;48.764;9.176;2023-02-11T03:56:36;100085.13;;;2.01;57.31
550;BME280;20066;48.764;9.176;2023-02-11T03:59:05;100077.16;;;2.29;56.88
550;BME280;20066;48.764;9.176;2023-02-11T04:01:32;100075.03;;;2.03;58.13
550;BME280;20066;48.764;9.176;2023-02-11T04:04:00;100064.28;;;2.42;57.66
550;BME280;20066;48.764;9.176;2023-02-11T04:06:28;100077.63;;;3.03;55.83
550;BME280;20066;48.764;9.176;2023-02-11T04:08:57;100070.31;;;3.13;54.49
550;BME280;20066;48.764;9.176;2023-02-11T04:11:25;100089.28;;;3.44;54.24
550;BME280;20066;48.764;9.176;2023-02-11T04:13:53;100090.25;;;2.68;55.82
550;BME280;20066;48.764;9.176;2023-02-11T04:16:21;100094.41;;;2.80;55.43
550;BME280;20066;48.764;9.176;2023-02-11T04:18:48;100100.63;;;2.17;57.15
550;BME280;20066;48.764;9.176;2023-02-11T04:21:16;100098.28;;;2.40;57.63
550;BME280;20066;48.764;9.176;2023-02-11T04:23:44;100111.13;;;2.56;57.51
550;BME280;20066;48.764;9.176;2023-02-11T04:26:13;100111.31;;;2.12;58.01
550;BME280;20066;48.764;9.176;2023-02-11T04:28:41;100111.41;;;2.79;56.75
550;BME280;20066;48.764;9.176;2023-02-11T04:31:08;100110.03;;;3.05;55.43
550;BME280;20066;48.764;9.176;2023-02-11T04:33:37;100100.47;;;3.41;55.47
550;BME280;20066;48.764;9.176;2023-02-11T04:36:05;100101.97;;;3.10;55.45
550;BME280;20066;48.764;9.176;2023-02-11T04:38:33;100114.13;;;3.72;53.88
550;BME280;20066;48.764;9.176;2023-02-11T04:41:01;100104.31;;;3.86;53.86
550;BME280;20066;48.764;9.176;2023-02-11T04:43:30;100094.41;;;4.06;53.05
550;BME280;20066;48.764;9.176;2023-02-11T04:45:58;100085.25;;;3.79;54.11
550;BME280;20066;48.764;9.176;2023-02-11T04:48:26;100091.63;;;3.97;53.07
550;BME280;20066;48.764;9.176;2023-02-11T04:50:53;100087.50;;;4.05;53.08
550;BME280;20066;48.764;9.176;2023-02-11T04:53:21;100093.25;;;3.79;54.88
550;BME280;20066;48.764;9.176;2023-02-11T04:55:49;100094.28;;;3.97;53.13
550;BME280;20066;48.764;9.176;2023-02-11T04:58:18;100087.31;;;3.69;54.05
550;BME280;20066;48.764;9.176;2023-02-11T05:00:47;100086.69;;;3.39;55.16
550;BME280;20066;48.764;9.176;2023-02-11T05:03:16;100090.63;;;3.42;55.37
550;BME280;20066;48.764;9.176;2023-02-11T05:05:43;100089.63;;;3.19;56.49
550;BME280;20066;48.764;9.176;2023-02-11T05:08:11;100080.78;;;3.42;55.09
550;BME280;20066;48.764;9.176;2023-02-11T05:10:39;100076.84;;;3.91;54.02
550;BME280;20066;48.764;9.176;2023-02-11T05:13:07;100082.06;;;3.64;54.99
550;BME280;20066;48.764;9.176;2023-02-11T05:15:35;100079.13;;;3.65;54.53
550;BME280;20066;48.764;9.176;2023-02-11T05:18:04;100068.38;;;3.70;54.14
550;BME280;20066;48.764;9.176;2023-02-11T05:20:31;100058.78;;;3.56;54.53
550;BME280;20066;48.764;9.176;2023-02-11T05:22:59;100055.63;;;3.16;55.85
550;BME280;20066;48.764;9.176;2023-02-11T05:25:27;100038.94;;;3.48;54.63
550;BME280;20066;48.764;9.176;2023-02-11T05:27:55;100023.09;;;2.87;56.48
550;BME280;20066;48.764;9.176;2023-02-11T05:30:23;100024.47;;;3.22;56.98
550;BME280;20066;48.764;9.176;2023-02-11T05:32:51;100019.66;;;3.05;57.42
550;BME280;20066;48.764;9.176;2023-02-11T05:35:20;100022.84;;;3.58;56.14
550;BME280;20066;48.764;9.176;2023-02-11T05:37:48;100028.09;;;2.69;57.09
550;BME280;20066;48.764;9.176;2023-02-11T05:40:16;100020.28;;;2.78;57.11
550;BME280;20066;48.764;9.176;2023-02-11T05:42:43;100025.31;;;2.80;56.41
550;BME280;20066;48.764;9.176;2023-02-11T05:45:11;100023.66;;;3.40;56.04
550;BME280;20066;48.764;9.176;2023-02-11T05:47:39;100019.28;;;4.09;54.54
550;BME280;20066;48.764;9.176;2023-02-11T05:50:07;100028.16;;;4.04;53.87
550;BME280;20066;48.764;9.176;2023-02-11T05:52:36;100030.03;;;4.17;54.10
550;BME280;20066;48.764;9.176;2023-02-11T05:55:04;100029.78;;;4.46;52.31
550;BME280;20066;48.764;9.176;2023-02-11T05:57:32;100028.28;;;4.40;53.13
550;BME280;20066;48.764;9.176;2023-02-11T06:00:00;100024.09;;;3.93;53.86
550;BME280;20066;48.764;9.176;2023-02-11T06:02:28;100033.44;;;4.50;53.01
550;BME280;20066;48.764;9.176;2023-02-11T06:04:56;100033.41;;;4.78;52.23
550;BME280;20066;48.764;9.176;2023-02-11T06:07:23;100037.03;;;4.95;51.90
550;BME280;20066;48.764;9.176;2023-02-11T06:09:53;100037.31;;;5.07;51.75
550;BME280;20066;48.764;9.176;2023-02-11T06:12:20;100035.88;;;4.19;53.66
550;BME280;20066;48.764;9.176;2023-02-11T06:14:48;100056.31;;;4.92;51.76
550;BME280;20066;48.764;9.176;2023-02-11T06:17:16;100069.22;;;4.85;50.54
550;BME280;20066;48.764;9.176;2023-02-11T06:19:44;100061.63;;;4.79;51.54
550;BME280;20066;48.764;9.176;2023-02-11T06:22:11;100065.56;;;4.95;51.35
550;BME280;20066;48.764;9.176;2023-02-11T06:24:39;100070.31;;;4.98;50.90
550;BME280;20066;48.764;9.176;2023-02-11T06:27:28;100060.19;;;4.59;51.39
550;BME280;20066;48.764;9.176;2023-02-11T06:29:56;100059.69;;;3.65;53.98
550;BME280;20066;48.764;9.176;2023-02-11T06:32:25;100055.06;;;4.03;54.29
550;BME280;20066;48.764;9.176;2023-02-11T06:35:09;100055.50;;;4.92;51.71
550;BME280;20066;48.764;9.176;2023-02-11T06:37:39;100047.72;;;5.18;51.08
550;BME280;20066;48.764;9.176;2023-02-11T06:40:07;100054.94;;;4.67;51.61
550;BME280;20066;48.764;9.176;2023-02-11T06:42:36;100050.88;;;4.56;53.00
550;BME280;20066;48.764;9.176;2023-02-11T06:45:05;100047.66;;;5.09;50.99
550;BME280;20066;48.764;9.176;2023-02-11T06:47:34;100051.00;;;5.15;51.34
550;BME280;20066;48.764;9.176;2023-02-11T06:50:02;100057.63;;;4.54;53.31
550;BME280;20066;48.764;9.176;2023-02-11T06:52:31;100061.31;;;4.94;52.61
550;BME280;20066;48.764;9.176;2023-02-11T06:55:02;100065.53;;;5.08;51.28
550;BME280;20066;48.764;9.176;2023-02-11T06:57:30;100073.88;;;4.66;52.37
550;BME280;20066;48.764;9.176;2023-02-11T07:00:00;100064.06;;;5.02;51.67
550;BME280;20066;48.764;9.176;2023-02-11T07:02:27;100069.88;;;5.40;51.04
550;BME280;20066;48.764;9.176;2023-02-11T07:04:55;100077.34;;;5.16;50.56
550;BME280;20066;48.764;9.176;2023-02-11T07:07:23;100078.38;;;4.93;52.62
550;BME280;20066;48.764;9.176;2023-02-11T07:09:50;100072.00;;;4.80;52.49
550;BME280;20066;48.764;9.176;2023-02-11T07:12:18;100070.22;;;4.89;52.38
550;BME280;20066;48.764;9.176;2023-02-11T07:14:46;100066.50;;;3.71;54.40
550;BME280;20066;48.764;9.176;2023-02-11T07:17:15;100066.03;;;3.69;56.71
550;BME280;20066;48.764;9.176;2023-02-11T07:19:43;100062.44;;;4.38;54.96
550;BME280;20066;48.764;9.176;2023-02-11T07:22:10;100060.00;;;4.09;54.81
550;BME280;20066;48.764;9.176;2023-02-11T07:24:38;100060.97;;;4.59;53.84
550;BME280;20066;48.764;9.176;2023-02-11T07:27:06;100057.75;;;4.16;54.49
550;BME280;20066;48.764;9.176;2023-02-11T07:29:34;100055.56;;;4.05;56.05
550;BME280;20066;48.764;9.176;2023-02-11T07:32:01;100047.19;;;4.93;53.36
550;BME280;20066;48.764;9.176;2023-02-11T07:34:31;100056.81;;;5.53;51.85
550;BME280;20066;48.764;9.176;2023-02-11T07:36:58;100062.22;;;5.25;52.38
550;BME280;20066;48.764;9.176;2023-02-11T07:39:26;100074.84;;;5.78;51.50
550;BME280;20066;48.764;9.176;2023-02-11T07:41:55;100079.38;;;5.33;52.83
550;BME280;20066;48.764;9.176;2023-02-11T07:44:23;100084.28;;;5.53;51.05
550;BME280;20066;48.764;9.176;2023-02-11T07:46:51;100086.72;;;4.64;53.88
550;BME280;20066;48.764;9.176;2023-02-11T07:49:19;100084.09;;;5.50;51.36
550;BME280;20066;48.764;9.176;2023-02-11T07:51:48;100072.91;;;5.47;52.55
550;BME280;20066;48.764;9.176;2023-02-11T07:54:17;100068.97;;;5.23;51.49
550;BME280;20066;48.764;9.176;2023-02-11T07:56:47;100066.06;;;5.55;51.65
550;BME280;20066;48.764;9.176;2023-02-11T07:59:15;100061.84;;;6.07;50.37
550;BME280;20066;48.764;9.176;2023-02-11T08:01:43;100063.47;;;6.56;49.89
550;BME280;20066;48.764;9.176;2023-02-11T08:04:11;100054.66;;;6.56;49.23
550;BME280;20066;48.764;9.176;2023-02-11T08:06:40;100059.09;;;5.90;49.77
550;BME280;20066;48.764;9.176;2023-02-11T08:09:13;100057.59;;;6.37;49.91
550;BME280;20066;48.764;9.176;2023-02-11T08:11:42;100040.91;;;5.70;51.78
550;BME280;20066;48.764;9.176;2023-02-11T08:14:10;100040.81;;;6.45;50.51
550;BME280;20066;48.764;9.176;2023-02-11T08:16:38;100041.78;;;6.58;50.21
550;BME280;20066;48.764;9.176;2023-02-11T08:19:09;100040.94;;;6.97;48.52
550;BME280;20066;48.764;9.176;2023-02-11T08:21:38;100045.63;;;6.83;49.79
550;BME280;20066;48.764;9.176;2023-02-11T08:24:06;100051.03;;;7.00;48.71
550;BME280;20066;48.764;9.176;2023-02-11T08:26:36;100048.88;;;6.71;49.98
550;BME280;20066;48.764;9.176;2023-02-11T08:29:07;100049.50;;;6.68;49.34
550;BME280;20066;48.764;9.176;2023-02-11T08:31:36;100064.72;;;7.59;47.66
550;BME280;20066;48.764;9.176;2023-02-11T08:34:05;100070.56;;;8.25;46.71
550;BME280;20066;48.764;9.176;2023-02-11T08:36:37;100064.69;;;8.78;45.08
550;BME280;20066;48.764;9.176;2023-02-11T08:39:07;100070.88;;;8.99;44.43
550;BME280;20066;48.764;9.176;2023-02-11T08:41:47;100074.13;;;7.82;46.51
550;BME280;20066;48.764;9.176;2023-02-11T08:44:15;100065.09;;;9.51;43.95
550;BME280;20066;48.764;9.176;2023-02-11T08:46:43;100061.34;;;10.42;41.89
550;BME280;20066;48.764;9.176;2023-02-11T08:49:11;100062.56;;;10.69;40.30
550;BME280;20066;48.764;9.176;2023-02-11T08:51:39;100063.22;;;10.78;40.07
550;BME280;20066;48.764;9.176;2023-02-11T08:54:07;100065.91;;;11.42;39.50
550;BME280;20066;48.764;9.176;2023-02-11T08:56:36;100054.06;;;12.81;37.05
550;BME280;20066;48.764;9.176;2023-02-11T08:59:06;100058.25;;;12.16;38.26
550;BME280;20066;48.764;9.176;2023-02-11T09:01:35;100039.25;;;15.41;33.03
550;BME280;20066;48.764;9.176;2023-02-11T09:04:03;100046.41;;;17.86;29.11
550;BME280;20066;48.764;9.176;2023-02-11T09:06:31;100051.13;;;18.78;27.48
550;BME280;20066;48.764;9.176;2023-02-11T09:08:59;100053.94;;;19.76;26.14
550;BME280;20066;48.764;9.176;2023-02-11T09:11:29;100065.88;;;21.64;23.73
550;BME280;20066;48.764;9.176;2023-02-11T09:13:57;100073.16;;;21.74;23.09
550;BME280;20066;48.764;9.176;2023-02-11T09:16:29;100076.09;;;21.60;24.10
550;BME280;20066;48.764;9.176;2023-02-11T09:18:59;100060.97;;;16.63;28.40
550;BME280;20066;48.764;9.176;2023-02-11T09:21:27;100054.75;;;16.59;30.41
550;BME280;20066;48.764;9.176;2023-02-11T09:23:55;100053.03;;;16.95;29.06
550;BME280;20066;48.764;9.176;2023-02-11T09:26:24;100052.63;;;16.89;29.54
550;BME280;20066;48.764;9.176;2023-02-11T09:28:53;100047.97;;;13.19;34.91
550;BME280;20066;48.764;9.176;2023-02-11T09:31:23;100049.94;;;16.38;31.15
550;BME280;20066;48.764;9.176;2023-02-11T09:33:55;100041.97;;;16.15;30.20
550;BME280;20066;48.764;9.176;2023-02-11T09:36:24;100047.38;;;16.12;30.32
550;BME280;20066;48.764;9.176;2023-02-11T09:38:53;100040.16;;;14.17;33.32
550;BME280;20066;48.764;9.176;2023-02-11T09:41:38;100036.84;;;11.91;37.27
550;BME280;20066;48.764;9.176;2023-02-11T09:44:16;100044.44;;;12.49;37.33
550;BME280;20066;48.764;9.176;2023-02-11T09:46:48;100029.31;;;13.33;36.03
550;BME280;20066;48.764;9.176;2023-02-11T09:49:22;100042.88;;;12.98;36.37
550;BME280;20066;48.764;9.176;2023-02-11T09:51:54;100036.03;;;14.76;33.83
550;BME280;20066;48.764;9.176;2023-02-11T09:54:28;100051.34;;;15.85;31.07
550;BME280;20066;48.764;9.176;2023-02-11T09:56:57;100049.16;;;13.41;35.67
550;BME280;20066;48.764;9.176;2023-02-11T09:59:25;100052.75;;;14.29;34.41
550;BME280;20066;48.764;9.176;2023-02-11T10:01:56;100042.94;;;15.26;33.09
550;BME280;20066;48.764;9.176;2023-02-11T10:04:42;100043.88;;;12.74;36.51
550;BME280;20066;48.764;9.176;2023-02-11T10:07:18;100053.25;;;15.43;32.47
550;BME280;20066;48.764;9.176;2023-02-11T10:09:56;100060.69;;;17.48;29.68
550;BME280;20066;48.764;9.176;2023-02-11T10:12:37;100057.19;;;15.50;31.86
550;BME280;20066;48.764;9.176;2023-02-11T10:15:16;100061.41;;;15.17;32.78
550;BME280;20066;48.764;9.176;2023-02-11T10:17:55;100055.81;;;15.66;31.67
550;BME280;20066;48.764;9.176;2023-02-11T10:20:31;100057.53;;;14.16;34.38
550;BME280;20066;48.764;9.176;2023-02-11T10:23:08;100063.91;;;16.37;30.99
550;BME280;20066;48.764;9.176;2023-02-11T10:25:38;100056.53;;;16.41;31.22
550;BME280;20066;48.764;9.176;2023-02-11T10:28:13;100058.59;;;15.10;32.78
550;BME280;20066;48.764;9.176;2023-02-11T10:30:44;100057.78;;;16.06;30.92
550;BME280;20066;48.764;9.176;2023-02-11T10:33:19;100061.34;;;17.20;29.39
550;BME280;20066;48.764;9.176;2023-02-11T10:35:52;100068.06;;;16.78;30.20
550;BME280;20066;48.764;9.176;2023-02-11T10:38:19;100064.69;;;16.37;30.54
550;BME280;20066;48.764;9.176;2023-02-11T10:40:47;100058.91;;;15.65;31.23
550;BME280;20066;48.764;9.176;2023-02-11T10:43:18;100060.25;;;16.70;29.91
550;BME280;20066;48.764;9.176;2023-02-11T10:45:49;100055.22;;;15.17;31.44
550;BME280;20066;48.764;9.176;2023-02-11T10:48:40;100047.19;;;11.34;37.82
550;BME280;20066;48.764;9.176;2023-02-11T10:51:18;100044.97;;;11.51;39.05
550;BME280;20066;48.764;9.176;2023-02-11T10:53:47;100044.28;;;10.50;40.22
550;BME280;20066;48.764;9.176;2023-02-11T10:56:21;100035.94;;;10.06;41.46
550;BME280;20066;48.764;9.176;2023-02-11T10:58:56;100037.84;;;11.03;39.32
550;BME280;20066;48.764;9.176;2023-02-11T11:01:38;100022.75;;;13.73;35.51
550;BME280;20066;48.764;9.176;2023-02-11T11:04:32;100024.38;;;14.72;33.54
550;BME280;20066;48.764;9.176;2023-02-11T11:07:12;100022.25;;;15.15;33.49
550;BME280;20066;48.764;9.176;2023-02-11T11:09:47;100018.88;;;16.36;31.19
550;BME280;20066;48.764;9.176;2023-02-11T11:12:45;100010.47;;;13.18;35.75
550;BME280;20066;48.764;9.176;2023-02-11T11:15:19;100019.63;;;12.27;38.02
550;BME280;20066;48.764;9.176;2023-02-11T11:17:47;100000.09;;;14.53;35.20
550;BME280;20066;48.764;9.176;2023-02-11T11:20:24;100007.97;;;14.61;33.67
550;BME280;20066;48.764;9.176;2023-02-11T11:23:09;100007.44;;;15.09;32.29
550;BME280;20066;48.764;9.176;2023-02-11T11:25:43;100007.97;;;15.14;33.16
550;BME280;20066;48.764;9.176;2023-02-11T11:28:21;100013.88;;;14.18;34.08
550;BME280;20066;48.764;9.176;2023-02-11T11:30:51;100014.72;;;14.45;33.57
550;BME280;20066;48.764;9.176;2023-02-11T11:33:22;100016.72;;;15.08;33.77
550;BME280;20066;48.764;9.176;2023-02-11T11:35:58;100011.75;;;13.43;35.88
550;BME280;20066;48.764;9.176;2023-02-11T11:38:29;100009.91;;;18.19;29.05
550;BME280;20066;48.764;9.176;2023-02-11T11:41:14;100006.28;;;15.36;32.52
550;BME280;20066;48.764;9.176;2023-02-11T11:44:03;100004.41;;;17.84;28.80
550;BME280;20066;48.764;9.176;2023-02-11T11:46:33;100002.19;;;15.90;31.72
550;BME280;20066;48.764;9.176;2023-02-11T11:49:12;99993.53;;;15.40;32.64
550;BME280;20066;48.764;9.176;2023-02-11T11:51:48;99988.16;;;13.63;35.47
550;BME280;20066;48.764;9.176;2023-02-11T11:54:19;99993.78;;;12.26;37.60
550;BME280;20066;48.764;9.176;2023-02-11T11:56:52;99987.50;;;12.38;39.48
550;BME280;20066;48.764;9.176;2023-02-11T11:59:22;100001.94;;;11.11;41.94
550;BME280;20066;48.764;9.176;2023-02-11T12:02:10;99990.56;;;10.05;43.41
550;BME280;20066;48.764;9.176;2023-02-11T12:04:58;99989.13;;;10.68;42.55
550;BME280;20066;48.764;9.176;2023-02-11T12:07:38;99997.53;;;12.06;39.20
550;BME280;20066;48.764;9.176;2023-02-11T12:10:25;99983.84;;;10.23;42.89
550;BME280;20066;48.764;9.176;2023-02-11T12:13:02;99980.81;;;9.10;45.54
550;BME280;20066;48.764;9.176;2023-02-11T12:15:39;99983.28;;;10.78;43.02
550;BME280;20066;48.764;9.176;2023-02-11T12:18:37;99989.69;;;12.67;39.48
550;BME280;20066;48.764;9.176;2023-02-11T12:21:22;99991.84;;;11.64;40.91
550;BME280;20066;48.764;9.176;2023-02-11T12:24:01;99993.00;;;10.95;42.14
550;BME280;20066;48.764;9.176;2023-02-11T12:26:41;99991.19;;;9.78;44.81
550;BME280;20066;48.764;9.176;2023-02-11T12:29:19;99987.16;;;12.08;41.60
550;BME280;20066;48.764;9.176;2023-02-11T12:31:58;99988.56;;;11.43;42.18
550;BME280;20066;48.764;9.176;2023-02-11T12:34:41;99992.31;;;11.54;41.77
550;BME280;20066;48.764;9.176;2023-02-11T12:37:25;99995.78;;;9.77;45.54
550;BME280;20066;48.764;9.176;2023-02-11T12:40:00;99995.84;;;10.62;44.36
550;BME280;20066;48.764;9.176;2023-02-11T12:42:40;99994.41;;;10.53;44.33
550;BME280;20066;48.764;9.176;2023-02-11T12:45:49;100001.59;;;11.41;42.06
550;BME280;20066;48.764;9.176;2023-02-11T12:48:44;99993.78;;;10.83;44.53
550;BME280;20066;48.764;9.176;2023-02-11T12:51:25;99991.09;;;10.96;44.52
550;BME280;20066;48.764;9.176;2023-02-11T12:54:14;99994.94;;;10.70;44.58
550;BME280;20066;48.764;9.176;2023-02-11T12:56:49;99991.63;;;9.67;47.46
550;BME280;20066;48.764;9.176;2023-02-11T12:59:28;99980.56;;;11.18;44.31
550;BME280;20066;48.764;9.176;2023-02-11T13:02:09;99981.75;;;11.33;44.03
550;BME280;20066;48.764;9.176;2023-02-11T13:04:42;99974.19;;;9.86;47.06
550;BME280;20066;48.764;9.176;2023-02-11T13:07:15;99975.00;;;10.59;45.77
550;BME280;20066;48.764;9.176;2023-02-11T13:09:50;99967.91;;;10.67;45.92
550;BME280;20066;48.764;9.176;2023-02-11T13:12:20;99954.38;;;10.51;45.33
550;BME280;20066;48.764;9.176;2023-02-11T13:15:12;99951.84;;;11.38;44.65
550;BME280;20066;48.764;9.176;2023-02-11T13:17:49;99955.09;;;11.87;42.03
550;BME280;20066;48.764;9.176;2023-02-11T13:20:27;99959.53;;;13.81;39.08
550;BME280;20066;48.764;9.176;2023-02-11T13:23:06;99953.38;;;13.61;38.24
550;BME280;20066;48.764;9.176;2023-02-11T13:25:42;99940.19;;;12.09;42.40
550;BME280;20066;48.764;9.176;2023-02-11T13:28:24;99947.53;;;13.17;40.67
550;BME280;20066;48.764;9.176;2023-02-11T13:30:56;99953.47;;;12.33;42.17
550;BME280;20066;48.764;9.176;2023-02-11T13:33:33;99952.13;;;13.55;39.44
550;BME280;20066;48.764;9.176;2023-02-11T13:36:25;99945.69;;;13.21;40.41
550;BME280;20066;48.764;9.176;2023-02-11T13:38:57;99953.56;;;12.21;42.66
550;BME280;20066;48.764;9.176;2023-02-11T13:41:31;99950.03;;;11.86;43.94
550;BME280;20066;48.764;9.176;2023-02-11T13:44:03;99948.03;;;11.39;45.04
550;BME280;20066;48.764;9.176;2023-02-11T13:46:49;99941.44;;;10.81;46.51
550;BME280;20066;48.764;9.176;2023-02-11T13:49:21;99959.31;;;11.01;47.22